Time;durP1;ratioP1;P1;durP2;ratioP2;P2;SDS_P1;SDS_P2;PMS_P1;PMS_P2;Temp;Humidity;BMP_temperature;BMP_pressure;BME280_temperature;BME280_humidity;BME280_pressure;Samples;Min_cycle;Max_cycle;Signal;HPM_P1;HPM_P2
2022/06/13 00:00:19;;;;;;;5.40;4.08;;;;;;;15.98;72.46;100525.66;1690863;82;21016;-87
2022/06/13 00:02:48;;;;;;;4.60;3.80;;;;;;;15.98;72.65;100533.59;1710651;82;21046;-88
2022/06/13 00:05:17;;;;;;;5.15;4.00;;;;;;;15.99;72.74;100530.00;1711511;82;21260;-87
2022/06/13 00:07:45;;;;;;;4.40;3.87;;;;;;;16.02;73.03;100526.73;1713418;82;21046;-86
2022/06/13 00:10:13;;;;;;;4.92;4.05;;;;;;;16.04;72.86;100522.66;1713921;82;21710;-87
2022/06/13 00:12:42;;;;;;;4.75;4.15;;;;;;;16.00;72.85;100515.86;1714046;82;21018;-87
2022/06/13 00:15:14;;;;;;;4.03;3.72;;;;;;;15.96;72.74;100511.23;1714024;82;21077;-88
2022/06/13 00:17:42;;;;;;;6.10;4.00;;;;;;;15.92;72.70;100504.40;1713871;82;21491;-87
2022/06/13 00:20:11;;;;;;;4.83;3.80;;;;;;;15.86;72.78;100494.66;1713709;82;21026;-87
2022/06/13 00:22:38;;;;;;;4.72;3.77;;;;;;;15.81;72.78;100486.52;1713964;82;21026;-88
2022/06/13 00:25:09;;;;;;;6.72;4.10;;;;;;;15.79;72.74;100485.73;1713930;82;21086;-87
2022/06/13 00:27:38;;;;;;;4.37;3.67;;;;;;;15.72;72.75;100478.27;1714019;82;21067;-88
2022/06/13 00:30:08;;;;;;;4.35;3.95;;;;;;;15.67;72.80;100475.00;1713762;82;21116;-87
2022/06/13 00:32:35;;;;;;;4.78;3.98;;;;;;;15.61;72.78;100470.45;1714069;82;20983;-88
2022/06/13 00:35:03;;;;;;;4.05;3.58;;;;;;;15.56;72.91;100471.17;1712794;82;21035;-87
2022/06/13 00:37:31;;;;;;;5.50;3.90;;;;;;;15.51;73.02;100467.94;1694072;83;21050;-88
2022/06/13 00:39:58;;;;;;;4.22;3.83;;;;;;;15.48;73.09;100463.30;1713877;82;21038;-87
2022/06/13 00:42:28;;;;;;;5.87;4.37;;;;;;;15.44;73.18;100463.95;1714100;82;21120;-88
2022/06/13 00:45:27;;;;;;;5.20;4.22;;;;;;;15.43;73.40;100465.34;1713886;82;20988;-87
2022/06/13 00:47:56;;;;;;;5.03;4.20;;;;;;;15.40;73.60;100461.08;1714136;82;21042;-87
2022/06/13 00:50:41;;;;;;;4.87;4.35;;;;;;;15.34;73.57;100460.95;1693937;83;21034;-88
2022/06/13 00:53:13;;;;;;;5.08;4.17;;;;;;;15.31;73.57;100462.93;1727555;82;21034;-87
2022/06/13 00:55:51;;;;;;;5.70;4.40;;;;;;;15.25;73.58;100466.77;1694201;82;21127;-88
2022/06/13 00:58:19;;;;;;;4.92;4.17;;;;;;;15.18;73.59;100466.23;1713483;82;21038;-86
2022/06/13 01:00:51;;;;;;;4.12;3.80;;;;;;;15.16;73.83;100457.56;1689195;82;21114;-86
2022/06/13 01:03:19;;;;;;;4.83;3.87;;;;;;;15.12;73.86;100454.69;1714101;82;20979;-88
2022/06/13 01:05:50;;;;;;;5.58;4.00;;;;;;;15.09;74.00;100448.27;1713751;82;21087;-88
2022/06/13 01:08:21;;;;;;;5.20;3.85;;;;;;;15.09;74.16;100448.74;1716261;82;21118;-86
2022/06/13 01:14:07;;;;;;;4.65;4.08;;;;;;;15.04;74.27;100442.38;1716821;82;21075;-88
2022/06/13 01:17:11;;;;;;;4.80;4.30;;;;;;;15.02;74.45;100440.77;1716453;82;21516;-88
2022/06/13 01:20:12;;;;;;;5.55;4.12;;;;;;;15.02;74.73;100446.92;1715996;82;21043;-88
2022/06/13 01:23:15;;;;;;;4.53;4.10;;;;;;;15.01;74.67;100435.95;1715827;82;21112;-87
2022/06/13 01:26:05;;;;;;;4.65;3.75;;;;;;;14.96;74.49;100437.99;1715699;82;21038;-88
2022/06/13 01:28:54;;;;;;;;;;;;;;;14.89;74.68;100436.16;1719252;82;21046;-88
2022/06/13 01:31:53;;;;;;;4.75;4.15;;;;;;;14.88;75.02;100431.84;1678361;84;20290;-88
2022/06/13 01:34:47;;;;;;;6.25;3.98;;;;;;;14.84;74.96;100429.44;1650236;86;21892;-88
2022/06/13 01:37:25;;;;;;;5.35;4.50;;;;;;;14.82;74.98;100432.62;1639835;86;21215;-88
2022/06/13 01:40:24;;;;;;;5.85;4.22;;;;;;;14.80;75.02;100423.48;1662592;85;21622;-88
2022/06/13 01:43:15;;;;;;;4.75;3.85;;;;;;;14.78;75.33;100424.02;1662473;85;21122;-88
2022/06/13 01:46:19;;;;;;;4.37;3.98;;;;;;;14.78;75.27;100417.42;1662584;85;21059;-88
2022/06/13 01:49:34;;;;;;;5.00;4.47;;;;;;;14.75;75.24;100416.28;1662661;85;21052;-88
2022/06/13 01:52:10;;;;;;;5.10;4.62;;;;;;;14.71;75.24;100411.64;1654160;85;21306;-86
2022/06/13 01:55:00;;;;;;;6.28;4.28;;;;;;;14.67;75.46;100403.49;1633261;85;21019;-87
2022/06/13 01:57:35;;;;;;;5.03;4.53;;;;;;;14.63;75.24;100407.69;1636091;85;21014;-87
2022/06/13 02:00:16;;;;;;;5.20;4.40;;;;;;;14.57;75.39;100406.23;1658743;85;21548;-87
2022/06/13 02:03:07;;;;;;;5.62;4.87;;;;;;;14.55;75.38;100401.53;1662718;85;21060;-87
2022/06/13 02:05:39;;;;;;;7.15;4.80;;;;;;;14.51;75.48;100398.62;1662590;85;21570;-87
2022/06/13 02:08:23;;;;;;;5.17;4.62;;;;;;;14.50;75.62;100400.41;1654463;85;21048;-86
2022/06/13 02:10:58;;;;;;;6.00;4.80;;;;;;;14.48;75.72;100398.31;1631654;85;21111;-87
2022/06/13 02:13:42;;;;;;;6.50;4.78;;;;;;;14.49;75.94;100393.45;1652807;85;21091;-87
2022/06/13 02:16:15;;;;;;;8.50;5.53;;;;;;;14.52;76.29;100392.43;1668929;85;21064;-86
2022/06/13 02:18:59;;;;;;;7.28;5.70;;;;;;;14.62;76.84;100387.05;1652865;85;21111;-86
2022/06/13 02:21:32;;;;;;;6.75;5.22;;;;;;;14.73;77.15;100385.16;1649214;86;21502;-86
2022/06/13 02:24:02;;;;;;;6.40;5.70;;;;;;;14.82;77.01;100397.84;1653874;85;20996;-87
2022/06/13 02:26:34;;;;;;;8.43;5.58;;;;;;;14.83;76.92;100406.63;1654456;85;21584;-87
2022/06/13 02:29:21;;;;;;;6.75;5.45;;;;;;;14.86;76.93;100402.50;1654603;85;21111;-86
2022/06/13 02:32:02;;;;;;;8.00;5.75;;;;;;;14.85;76.95;100404.73;1654690;85;21888;-87
2022/06/13 02:34:47;;;;;;;6.78;6.08;;;;;;;14.87;77.15;100405.04;1630956;86;21589;-88
2022/06/13 02:37:19;;;;;;;6.58;5.62;;;;;;;14.92;77.15;100410.92;1694255;82;21065;-88
2022/06/13 02:40:13;;;;;;;6.37;5.47;;;;;;;14.89;77.13;100408.45;1711424;82;21038;-86
2022/06/13 02:43:02;;;;;;;8.68;5.87;;;;;;;14.93;77.31;100404.70;1710601;82;21454;-86
2022/06/13 02:45:38;;;;;;;8.80;6.67;;;;;;;14.98;77.54;100403.13;1717512;82;21074;-86
2022/06/13 02:48:25;;;;;;;7.45;6.33;;;;;;;15.01;77.50;100406.08;1717616;82;20991;-86
2022/06/13 02:51:25;;;;;;;6.97;5.83;;;;;;;15.04;77.59;100415.14;1711353;82;21525;-86
2022/06/13 02:53:57;;;;;;;8.70;6.25;;;;;;;15.05;77.44;100408.47;1701200;83;21127;-86
2022/06/13 03:00:15;;;;;;;10.72;6.30;;;;;;;15.09;77.73;100403.86;1707892;82;21361;-86
2022/06/13 03:02:50;;;;;;;7.03;5.83;;;;;;;15.10;77.80;100396.31;1711080;82;21473;-87
2022/06/13 03:05:35;;;;;;;6.92;6.25;;;;;;;15.10;77.87;100389.27;1705799;82;21599;-86
2022/06/13 03:08:50;;;;;;;7.45;6.67;;;;;;;15.13;78.08;100386.46;1693411;82;21483;-87
2022/06/13 03:11:23;;;;;;;7.47;6.67;;;;;;;15.21;78.56;100386.00;1691509;82;21050;-86
2022/06/13 03:14:36;;;;;;;8.10;7.20;;;;;;;15.27;78.46;100401.97;1710174;82;21105;-86
2022/06/13 03:17:11;;;;;;;8.18;7.10;;;;;;;15.29;78.37;100406.70;1723593;82;20992;-86
2022/06/13 03:19:50;;;;;;;7.33;6.62;;;;;;;15.32;78.67;100412.65;1690294;82;21019;-86
2022/06/13 03:22:47;;;;;;;8.08;6.95;;;;;;;15.38;78.83;100400.45;1724185;82;21042;-86
2022/06/13 03:25:43;;;;;;;7.65;6.85;;;;;;;15.45;78.95;100397.45;1697279;82;21043;-86
2022/06/13 03:28:22;;;;;;;7.37;6.67;;;;;;;15.47;78.76;100405.66;1711097;82;21293;-86
2022/06/13 03:31:02;;;;;;;10.05;7.00;;;;;;;15.53;78.91;100401.82;1709979;82;21079;-86
2022/06/13 03:33:41;;;;;;;7.87;6.87;;;;;;;15.59;78.97;100410.70;1719106;82;21247;-85
2022/06/13 03:36:33;;;;;;;7.33;6.45;;;;;;;15.64;78.86;100403.37;1715362;82;21066;-86
2022/06/13 03:39:14;;;;;;;8.35;6.15;;;;;;;15.67;78.70;100408.95;1711081;82;21233;-86
2022/06/13 03:42:12;;;;;;;6.37;5.53;;;;;;;15.66;78.58;100401.50;1707115;82;21112;-85
2022/06/13 03:45:08;;;;;;;5.78;5.05;;;;;;;15.67;78.56;100398.38;1711169;82;21272;-86
2022/06/13 03:47:50;;;;;;;5.90;5.40;;;;;;;15.70;78.69;100397.75;1711026;82;21050;-86
2022/06/13 03:50:31;;;;;;;6.83;5.85;;;;;;;15.76;78.85;100397.39;1710775;82;21043;-86
2022/06/13 03:53:06;;;;;;;8.55;5.15;;;;;;;15.79;78.73;100391.08;1710556;82;21090;-86
2022/06/13 03:55:39;;;;;;;6.60;5.10;;;;;;;15.78;78.65;100390.23;1710305;82;21326;-86
2022/06/13 03:58:17;;;;;;;7.30;5.87;;;;;;;15.79;78.66;100390.59;1710540;82;21038;-86
2022/06/13 04:00:53;;;;;;;6.00;5.40;;;;;;;15.80;78.79;100386.19;1703390;82;21106;-85
2022/06/13 04:03:21;;;;;;;6.47;5.87;;;;;;;15.81;78.82;100388.73;1708571;82;21079;-85
2022/06/13 04:06:38;;;;;;;6.83;6.12;;;;;;;15.81;78.78;100383.44;1712639;82;21046;-86
2022/06/13 04:09:11;;;;;;;8.15;5.92;;;;;;;15.82;78.79;100386.92;1712958;82;21256;-87
2022/06/13 04:12:06;;;;;;;6.42;5.75;;;;;;;15.81;79.02;100384.76;1712921;82;21055;-87
2022/06/13 04:14:56;;;;;;;6.50;5.85;;;;;;;15.83;78.95;100384.69;1713273;82;21579;-86
2022/06/13 04:18:10;;;;;;;7.17;6.35;;;;;;;15.89;79.16;100368.93;1712358;82;21230;-87
2022/06/13 04:21:19;;;;;;;6.55;5.90;;;;;;;15.94;79.11;100360.26;1713350;82;22038;-84
2022/06/13 04:24:08;;;;;;;6.62;5.75;;;;;;;15.95;79.09;100361.47;1720935;82;21521;-86
2022/06/13 04:26:56;;;;;;;7.78;6.22;;;;;;;15.95;79.25;100369.41;1709102;82;20983;-85
2022/06/13 04:29:34;;;;;;;6.80;6.10;;;;;;;16.02;79.31;100365.94;1712426;82;21531;-86
2022/06/13 04:32:06;;;;;;;7.80;6.15;;;;;;;16.03;79.23;100371.11;1713475;82;21007;-86
2022/06/13 04:34:40;;;;;;;6.55;5.83;;;;;;;16.03;79.21;100365.83;1729928;82;21078;-86
2022/06/13 04:37:11;;;;;;;6.08;5.37;;;;;;;16.05;79.37;100377.17;1721317;82;21140;-86
2022/06/13 04:39:48;;;;;;;6.58;5.60;;;;;;;16.09;79.45;100379.63;1712454;82;21085;-85
2022/06/13 04:42:25;;;;;;;7.72;6.25;;;;;;;16.11;79.49;100377.75;1712001;82;21070;-86
2022/06/13 04:44:56;;;;;;;7.08;6.35;;;;;;;16.17;79.58;100371.60;1713269;82;21074;-86
2022/06/13 04:47:24;;;;;;;7.30;6.60;;;;;;;16.21;79.57;100373.14;1724204;82;21089;-83
2022/06/13 04:49:58;;;;;;;7.83;7.05;;;;;;;16.25;79.64;100373.31;1717226;82;21926;-82
2022/06/13 04:52:32;;;;;;;8.38;6.95;;;;;;;16.30;79.67;100371.72;1713666;82;21565;-82
2022/06/13 04:55:17;;;;;;;10.28;7.92;;;;;;;16.33;79.71;100371.53;1713865;82;21446;-84
2022/06/13 04:57:44;;;;;;;9.28;8.08;;;;;;;16.40;79.75;100375.95;1713895;82;21018;-84
2022/06/13 05:00:13;;;;;;;10.03;9.08;;;;;;;16.46;79.75;100368.95;1713999;82;20995;-82
2022/06/13 05:02:47;;;;;;;10.70;9.60;;;;;;;16.51;79.75;100362.91;1713886;82;21071;-80
2022/06/13 05:05:43;;;;;;;11.55;9.65;;;;;;;16.54;79.70;100362.72;1713945;82;21491;-85
2022/06/13 05:08:25;;;;;;;10.28;9.20;;;;;;;16.57;79.66;100361.23;1713651;82;21038;-81
2022/06/13 05:10:57;;;;;;;10.82;9.40;;;;;;;16.61;79.66;100365.38;1713804;82;21094;-82
2022/06/13 05:13:25;;;;;;;15.35;13.72;;;;;;;16.63;79.78;100358.19;1713210;82;21110;-83
2022/06/13 05:16:01;;;;;;;12.28;10.88;;;;;;;16.67;79.76;100359.69;1713463;82;21102;-85
2022/06/13 05:18:54;;;;;;;10.78;9.78;;;;;;;16.72;79.83;100353.62;1699045;82;21006;-82
2022/06/13 05:21:38;;;;;;;13.15;11.03;;;;;;;16.77;79.86;100349.89;1714107;82;21509;-81
2022/06/13 05:24:47;;;;;;;11.70;9.85;;;;;;;16.83;79.89;100339.75;1713497;82;21018;-81
2022/06/13 05:27:15;;;;;;;10.48;9.35;;;;;;;16.89;79.85;100339.83;1714229;82;21057;-81
2022/06/13 05:29:42;;;;;;;11.28;8.28;;;;;;;16.95;80.18;100334.98;1713932;82;21142;-81
2022/06/13 05:32:12;;;;;;;10.68;8.68;;;;;;;16.95;80.18;100334.98;1714099;82;21462;-83
2022/06/13 05:34:42;;;;;;;10.10;8.50;;;;;;;17.00;79.95;100323.25;1713884;82;21062;-82
2022/06/13 05:37:11;;;;;;;;;;;;;;;17.05;79.88;100325.13;1716524;82;21243;-80
2022/06/13 05:39:39;;;;;;;11.18;9.43;;;;;;;17.05;79.93;100337.89;1714079;82;20462;-83
2022/06/13 05:42:09;;;;;;;11.00;8.80;;;;;;;17.07;79.86;100350.56;1713678;82;21177;-80
2022/06/13 05:44:36;;;;;;;9.93;9.03;;;;;;;17.10;79.74;100366.25;1714106;82;21026;-84
2022/06/13 05:47:04;;;;;;;10.93;9.83;;;;;;;17.15;79.78;100384.48;1714016;82;22239;-85
2022/06/13 05:49:31;;;;;;;11.20;10.00;;;;;;;17.19;79.77;100385.99;1713652;82;21043;-82
2022/06/13 05:51:59;;;;;;;13.48;9.95;;;;;;;17.23;79.65;100389.28;1692039;82;21540;-85
2022/06/13 05:54:26;;;;;;;11.73;10.23;;;;;;;17.28;79.82;100376.11;1713529;82;21156;-83
2022/06/13 05:56:53;;;;;;;11.90;10.58;;;;;;;17.35;79.75;100381.88;1713374;82;21035;-88
2022/06/13 05:59:20;;;;;;;11.28;10.18;;;;;;;17.41;79.78;100372.20;1713553;82;21521;-80
2022/06/13 06:01:48;;;;;;;12.30;11.10;;;;;;;17.54;79.81;100369.56;1707110;82;21058;-81
2022/06/13 06:04:15;;;;;;;12.23;10.50;;;;;;;17.54;79.81;100369.56;1713537;82;21463;-79
2022/06/13 06:06:43;;;;;;;11.93;10.75;;;;;;;17.67;79.74;100375.75;1713934;82;21966;-81
2022/06/13 06:09:12;;;;;;;13.10;11.15;;;;;;;17.77;79.63;100382.14;1713380;82;21454;-80
2022/06/13 06:11:39;;;;;;;12.18;10.98;;;;;;;17.85;79.33;100381.66;1711478;82;21472;-79
2022/06/13 06:14:07;;;;;;;11.78;10.68;;;;;;;17.93;79.18;100389.08;1713893;82;20988;-79
2022/06/13 06:16:38;;;;;;;12.95;11.30;;;;;;;18.02;79.19;100388.47;1718912;82;21508;-81
2022/06/13 06:19:06;;;;;;;13.10;11.48;;;;;;;18.10;79.08;100376.86;1710323;82;21176;-81
2022/06/13 06:21:35;;;;;;;12.60;11.33;;;;;;;18.20;78.75;100377.06;1712055;82;21495;-82
2022/06/13 06:24:02;;;;;;;13.53;12.20;;;;;;;18.26;78.45;100367.34;1712329;82;21389;-84
2022/06/13 06:26:29;;;;;;;12.55;11.33;;;;;;;18.33;78.07;100358.02;1694009;82;21325;-81
2022/06/13 06:28:57;;;;;;;12.40;11.20;;;;;;;18.38;77.61;100356.38;1712211;82;21038;-78
2022/06/13 06:31:24;;;;;;;12.47;11.22;;;;;;;18.43;77.34;100371.50;1712320;82;21102;-78
2022/06/13 06:33:51;;;;;;;12.00;10.80;;;;;;;18.50;77.16;100377.57;1712424;82;21015;-80
2022/06/13 06:36:18;;;;;;;12.50;11.30;;;;;;;18.54;76.90;100376.89;1708879;82;21507;-82
2022/06/13 06:38:46;;;;;;;12.80;10.75;;;;;;;18.59;76.53;100379.20;1712556;82;21051;-80
2022/06/13 06:41:13;;;;;;;13.30;11.45;;;;;;;18.58;76.22;100393.45;1712367;82;21366;-82
2022/06/13 06:43:41;;;;;;;12.43;11.12;;;;;;;18.57;76.06;100390.41;1712350;82;21100;-84
2022/06/13 06:46:08;;;;;;;11.60;10.40;;;;;;;18.58;75.86;100396.94;1712258;82;21035;-82
2022/06/13 06:48:36;;;;;;;12.10;10.20;;;;;;;18.58;75.83;100390.30;1712449;82;21050;-83
2022/06/13 06:51:10;;;;;;;14.33;10.75;;;;;;;18.64;75.85;100404.47;1712249;82;21098;-83
2022/06/13 07:01:57;;;;;;;10.50;7.95;;;;;;;18.84;75.16;100400.42;1708966;82;21018;-83
2022/06/13 07:04:24;;;;;;;11.70;7.50;;;;;;;18.92;74.86;100402.53;1713626;82;21452;-85
2022/06/13 07:06:51;;;;;;;10.65;7.30;;;;;;;19.00;74.47;100413.45;1713518;82;21373;-85
2022/06/13 07:09:18;;;;;;;9.78;7.28;;;;;;;19.03;74.04;100415.89;1714608;82;21092;-84
2022/06/13 07:11:55;;;;;;;8.20;6.65;;;;;;;19.06;73.63;100417.48;1714953;82;21031;-81
2022/06/13 07:14:29;;;;;;;9.30;6.53;;;;;;;19.05;73.05;100421.95;1712704;82;21504;-83
2022/06/13 07:17:04;;;;;;;9.15;6.50;;;;;;;19.05;73.00;100421.11;1714518;82;20999;-83
2022/06/13 07:19:31;;;;;;;7.65;6.08;;;;;;;19.10;72.94;100417.16;1714829;82;21065;-84
2022/06/13 07:22:00;;;;;;;9.40;5.80;;;;;;;19.19;72.79;100420.95;1714473;82;21121;-83
2022/06/13 07:24:28;;;;;;;8.78;5.97;;;;;;;19.27;72.58;100416.41;1714624;82;20881;-82
2022/06/13 07:26:56;;;;;;;7.85;5.62;;;;;;;19.43;72.31;100427.62;1714483;82;22270;-83
2022/06/13 07:29:23;;;;;;;7.55;5.35;;;;;;;19.52;71.53;100442.04;1714470;82;21054;-82
2022/06/13 07:32:00;;;;;;;7.25;5.30;;;;;;;19.53;71.00;100442.39;1714704;82;21026;-85
2022/06/13 07:34:31;;;;;;;6.58;4.83;;;;;;;19.54;70.76;100442.78;1715116;82;21121;-83
2022/06/13 07:37:02;;;;;;;10.03;4.78;;;;;;;19.51;70.25;100445.19;1712851;82;21058;-81
2022/06/13 07:39:29;;;;;;;8.98;4.92;;;;;;;19.48;69.77;100440.55;1714522;82;21462;-81
2022/06/13 07:41:57;;;;;;;7.75;4.60;;;;;;;19.39;69.46;100436.28;1715006;82;21035;-80
2022/06/13 07:44:29;;;;;;;6.22;4.50;;;;;;;19.33;69.37;100440.72;1714209;82;21027;-81
2022/06/13 07:46:57;;;;;;;14.78;5.60;;;;;;;19.27;69.29;100445.64;1714492;82;21191;-83
2022/06/13 07:49:24;;;;;;;12.15;5.87;;;;;;;19.19;69.72;100425.42;1714656;82;21036;-82
2022/06/13 07:51:52;;;;;;;14.18;6.85;;;;;;;19.00;70.18;100412.62;1711620;82;21026;-79
2022/06/13 07:54:21;;;;;;;8.38;6.22;;;;;;;18.75;70.79;100413.52;1712552;82;21070;-79
2022/06/13 07:56:49;;;;;;;8.38;5.60;;;;;;;18.48;71.35;100405.17;1714467;82;21011;-80
2022/06/13 07:59:20;;;;;;;9.58;5.00;;;;;;;18.22;71.92;100385.28;1714744;82;21089;-79
2022/06/13 08:01:48;;;;;;;7.37;4.87;;;;;;;17.98;72.35;100382.50;1711402;82;21039;-81
2022/06/13 08:04:16;;;;;;;8.45;5.12;;;;;;;17.74;72.79;100385.48;1714853;82;21039;-80
2022/06/13 08:06:43;;;;;;;5.55;4.42;;;;;;;17.57;73.65;100397.19;1714621;82;21003;-81
2022/06/13 08:09:11;;;;;;;7.70;4.87;;;;;;;17.48;74.30;100410.56;1712810;82;21608;-82
2022/06/13 08:11:44;;;;;;;8.58;4.80;;;;;;;17.52;75.16;100426.66;1709641;82;21122;-81
2022/06/13 08:14:11;;;;;;;7.08;4.08;;;;;;;17.63;75.73;100428.61;1708855;82;21019;-81
2022/06/13 08:16:39;;;;;;;8.90;4.20;;;;;;;17.74;76.02;100424.77;1710423;82;21042;-81
2022/06/13 08:19:06;;;;;;;7.08;3.83;;;;;;;17.81;75.88;100433.18;1709999;82;21027;-81
2022/06/13 08:21:36;;;;;;;8.08;3.98;;;;;;;17.88;75.94;100445.09;1709682;82;21062;-81
2022/06/13 08:24:05;;;;;;;;;;;;;;;17.98;76.00;100458.09;1712351;82;21281;-80
2022/06/13 08:26:33;;;;;;;6.55;4.00;;;;;;;18.10;76.40;100460.41;1709636;82;20191;-80
2022/06/13 08:29:00;;;;;;;7.12;3.20;;;;;;;18.25;76.31;100467.80;1709923;82;20990;-82
2022/06/13 08:31:28;;;;;;;6.33;3.20;;;;;;;18.38;75.73;100475.78;1709648;82;21007;-81
2022/06/13 08:33:55;;;;;;;6.08;3.30;;;;;;;18.47;75.23;100481.78;1709978;82;21034;-80
2022/06/13 08:36:22;;;;;;;7.80;3.62;;;;;;;18.46;74.77;100488.90;1689776;83;21500;-80
2022/06/13 08:38:50;;;;;;;7.55;3.40;;;;;;;18.41;74.37;100496.32;1709927;82;21059;-82
2022/06/13 08:41:34;;;;;;;8.13;3.55;;;;;;;18.37;74.43;100507.23;1709692;82;20983;-81
2022/06/13 08:44:43;;;;;;;6.72;3.02;;;;;;;18.36;74.45;100516.16;1708319;82;21557;-81
2022/06/13 08:47:31;;;;;;;8.53;2.60;;;;;;;18.34;74.39;100516.25;1709948;82;21473;-81
2022/06/13 08:50:22;;;;;;;6.45;2.95;;;;;;;18.40;73.89;100518.97;1709770;82;21090;-82
2022/06/13 08:53:12;;;;;;;5.75;2.40;;;;;;;18.54;74.17;100508.73;1709066;82;20996;-81
2022/06/13 08:55:49;;;;;;;7.05;2.45;;;;;;;18.76;74.47;100520.97;1709457;82;21406;-81
2022/06/13 08:58:40;;;;;;;7.05;2.75;;;;;;;18.92;73.58;100516.25;1704611;82;21486;-79
2022/06/13 09:01:19;;;;;;;7.15;2.52;;;;;;;18.99;72.77;100526.47;1710251;82;21366;-80
2022/06/13 09:04:03;;;;;;;4.08;2.22;;;;;;;18.99;72.15;100524.66;1711244;82;21129;-83
2022/06/13 09:06:53;;;;;;;6.20;2.65;;;;;;;19.02;71.88;100528.91;1711293;82;20976;-84
2022/06/13 09:09:26;;;;;;;7.12;2.80;;;;;;;19.05;71.26;100534.00;1712663;82;21035;-84
2022/06/13 09:12:07;;;;;;;4.28;2.00;;;;;;;19.09;70.70;100546.98;1716842;82;21014;-84
2022/06/13 09:14:43;;;;;;;5.85;2.72;;;;;;;19.10;70.58;100546.01;1716514;82;21532;-84
2022/06/13 09:17:18;;;;;;;6.17;2.02;;;;;;;19.14;70.16;100551.46;1716585;82;21203;-84
2022/06/13 09:19:56;;;;;;;4.58;2.25;;;;;;;19.14;69.71;100550.62;1716406;82;21050;-84
2022/06/13 09:22:47;;;;;;;5.65;2.37;;;;;;;19.11;69.29;100555.67;1716140;82;21046;-86
2022/06/13 09:25:36;;;;;;;7.40;2.58;;;;;;;19.05;68.88;100564.08;1715324;82;21002;-85
2022/06/13 09:28:36;;;;;;;5.05;1.98;;;;;;;19.00;68.47;100571.51;1716665;82;21059;-85
2022/06/13 09:31:11;;;;;;;4.22;1.98;;;;;;;18.98;68.53;100577.40;1701622;83;22973;-83
2022/06/13 09:33:50;;;;;;;3.65;2.22;;;;;;;18.96;68.38;100574.50;1672217;85;21075;-86
2022/06/13 09:36:36;;;;;;;5.58;2.52;;;;;;;18.93;68.23;100573.75;1656855;85;21019;-84
2022/06/13 09:39:07;;;;;;;3.60;2.02;;;;;;;18.89;67.97;100555.47;1657514;85;21588;-81
2022/06/13 09:41:40;;;;;;;5.35;2.12;;;;;;;18.84;67.60;100558.43;1657194;85;21020;-84
2022/06/13 09:44:34;;;;;;;5.17;2.45;;;;;;;18.81;67.63;100560.45;1657429;85;21207;-84
2022/06/13 09:47:18;;;;;;;5.70;2.00;;;;;;;18.82;67.82;100557.71;1662772;85;21430;-81
2022/06/13 09:50:26;;;;;;;6.15;1.92;;;;;;;18.89;67.83;100561.63;1662160;85;21110;-85
2022/06/13 09:53:04;;;;;;;6.12;2.02;;;;;;;18.97;67.75;100557.11;1662873;85;21043;-85
2022/06/13 09:55:44;;;;;;;4.42;1.60;;;;;;;19.08;67.86;100551.90;1662468;85;21059;-86
2022/06/13 09:58:31;;;;;;;3.75;1.72;;;;;;;19.13;67.29;100550.26;1662662;85;21129;-85
2022/06/13 10:01:33;;;;;;;3.67;1.60;;;;;;;19.19;66.79;100559.61;1652461;85;21509;-86
2022/06/13 10:04:14;;;;;;;4.50;1.75;;;;;;;19.18;65.84;100558.76;1658565;85;21549;-87
2022/06/13 10:06:49;;;;;;;3.85;1.80;;;;;;;19.17;65.64;100558.37;1662630;85;21051;-81
2022/06/13 10:09:45;;;;;;;5.05;2.22;;;;;;;19.21;65.23;100553.23;1661540;85;21048;-84
2022/06/13 10:12:51;;;;;;;8.28;1.92;;;;;;;19.25;65.07;100556.02;1651374;85;21153;-83
2022/06/13 10:15:26;;;;;;;5.33;1.80;;;;;;;19.30;64.83;100550.39;1641263;85;21086;-85
2022/06/13 10:18:26;;;;;;;4.90;1.80;;;;;;;19.36;64.85;100543.30;1658453;85;21063;-86
2022/06/13 10:20:59;;;;;;;5.97;2.05;;;;;;;19.42;64.85;100548.66;1654792;85;21043;-92
2022/06/13 10:24:00;;;;;;;8.20;2.67;;;;;;;19.42;63.83;100551.31;1661617;85;21016;-85
2022/06/13 10:26:47;;;;;;;6.40;2.10;;;;;;;19.38;63.46;100550.70;1652751;85;21248;-84
2022/06/13 10:29:48;;;;;;;7.15;4.05;;;;;;;19.37;63.69;100556.50;1652322;85;21597;-88
2022/06/13 10:32:37;;;;;;;7.83;1.80;;;;;;;19.39;63.76;100555.05;1653681;85;21154;-86
2022/06/13 10:35:19;;;;;;;5.28;2.00;;;;;;;19.41;63.30;100553.13;1653491;85;21552;-82
2022/06/13 10:38:01;;;;;;;4.17;1.75;;;;;;;19.46;63.04;100558.13;1653800;85;21248;-84
2022/06/13 10:40:30;;;;;;;3.60;1.65;;;;;;;19.50;62.94;100548.95;1652970;85;21545;-83
2022/06/13 10:42:58;;;;;;;6.47;1.82;;;;;;;19.56;62.79;100543.19;1653264;85;21052;-85
2022/06/13 10:45:26;;;;;;;6.12;2.05;;;;;;;19.65;62.86;100549.20;1653204;85;21477;-84
2022/06/13 10:48:01;;;;;;;6.42;2.05;;;;;;;19.77;62.78;100540.83;1653955;85;21542;-84
2022/06/13 10:50:55;;;;;;;6.30;2.22;;;;;;;19.90;62.56;100537.64;1653695;85;21071;-84
2022/06/13 10:53:39;;;;;;;3.85;1.87;;;;;;;19.98;62.51;100529.94;1653158;85;21111;-84
2022/06/13 10:56:20;;;;;;;6.95;1.80;;;;;;;20.10;62.11;100526.84;1653103;85;21119;-84
2022/06/13 10:58:51;;;;;;;5.58;1.90;;;;;;;20.10;61.52;100540.62;1652878;85;21048;-83
2022/06/13 11:01:22;;;;;;;6.20;2.10;;;;;;;20.11;61.61;100540.50;1640494;85;21524;-84
2022/06/13 11:04:06;;;;;;;8.13;2.00;;;;;;;20.16;61.65;100538.34;1648333;85;21631;-84
2022/06/13 11:06:45;;;;;;;8.23;2.22;;;;;;;20.17;61.30;100536.53;1653774;85;21621;-83
2022/06/13 11:09:29;;;;;;;4.42;1.82;;;;;;;20.20;61.20;100535.84;1653895;85;21567;-84
2022/06/13 11:12:01;;;;;;;6.05;2.10;;;;;;;20.40;61.39;100543.64;1654478;85;21059;-84
2022/06/13 11:22:37;;;;;;;6.22;1.80;;;;;;;20.63;61.27;100531.74;1654588;85;21438;-85
2022/06/13 11:22:51;;;;;;;4.42;1.65;;;;;;;21.27;60.07;100520.02;1654385;85;21572;-84
2022/06/13 11:25:23;;;;;;;4.25;1.87;;;;;;;21.52;59.32;100513.59;1654086;85;21529;-83
2022/06/13 11:28:14;;;;;;;4.37;1.75;;;;;;;21.48;58.69;100525.98;1654364;85;37726;-83
2022/06/13 11:30:54;;;;;;;4.15;1.77;;;;;;;21.32;58.18;100522.33;1654532;85;21090;-84
2022/06/13 11:33:40;;;;;;;4.85;1.62;;;;;;;21.20;58.08;100516.16;1641892;86;22465;-85
2022/06/13 11:36:21;;;;;;;3.37;1.52;;;;;;;21.11;58.08;100524.38;1654463;85;21560;-84
2022/06/13 11:39:05;;;;;;;5.03;1.87;;;;;;;21.02;57.74;100521.61;1654555;85;21514;-84
2022/06/13 11:41:47;;;;;;;6.58;1.70;;;;;;;20.91;57.60;100515.79;1654288;85;21575;-85
2022/06/13 11:44:21;;;;;;;3.90;1.90;;;;;;;20.84;57.45;100520.77;1654532;85;21526;-84
2022/06/13 11:46:56;;;;;;;3.50;1.40;;;;;;;20.80;57.42;100513.96;1654516;85;21133;-84
2022/06/13 11:49:40;;;;;;;5.72;2.02;;;;;;;20.78;57.15;100513.72;1654598;85;21051;-83
2022/06/13 11:53:35;;;;;;;7.58;1.90;;;;;;;20.75;56.93;100514.80;1654549;85;21457;-83
2022/06/13 11:54:54;;;;;;;5.28;1.57;;;;;;;20.75;56.22;100526.78;1656208;85;21001;-84
2022/06/13 11:57:32;;;;;;;6.33;1.65;;;;;;;20.83;55.79;100538.19;1654820;85;21100;-83
2022/06/13 12:00:18;;;;;;;5.08;1.75;;;;;;;21.05;55.62;100523.54;1654520;85;21170;-84
2022/06/13 12:02:56;;;;;;;5.95;1.65;;;;;;;21.37;55.37;100530.34;1654485;85;21008;-84
2022/06/13 12:05:38;;;;;;;6.10;1.65;;;;;;;21.54;54.95;100515.66;1654741;85;21032;-83
2022/06/13 12:08:21;;;;;;;3.92;1.72;;;;;;;21.67;54.63;100523.98;1654758;85;21051;-84
2022/06/13 12:11:14;;;;;;;4.92;1.80;;;;;;;21.80;54.21;100518.00;1656627;85;21067;-85
2022/06/13 12:13:45;;;;;;;4.75;1.50;;;;;;;22.32;54.05;100519.03;1659897;85;21094;-86
2022/06/13 12:16:24;;;;;;;8.58;1.47;;;;;;;22.94;53.45;100515.94;1659411;85;21078;-86
2022/06/13 12:19:03;;;;;;;6.05;1.72;;;;;;;23.36;52.05;100514.04;1659570;85;21682;-84
2022/06/13 12:21:47;;;;;;;4.75;1.67;;;;;;;23.40;51.34;100517.77;1657901;85;21050;-93
2022/06/13 12:24:46;;;;;;;4.58;1.40;;;;;;;23.34;50.53;100517.83;1657825;84;21083;-87
2022/06/13 12:27:39;;;;;;;5.55;1.52;;;;;;;23.25;49.78;100515.95;1658947;85;28334;-85
2022/06/13 12:30:30;;;;;;;7.45;1.30;;;;;;;23.17;49.07;100495.26;1658228;84;21576;-88
2022/06/13 12:33:08;;;;;;;4.15;1.40;;;;;;;23.14;48.26;100506.20;1658615;85;21062;-84
2022/06/13 12:35:53;;;;;;;4.95;1.40;;;;;;;23.28;48.34;100511.20;1659694;85;21020;-86